sensor_id;sensor_type;location;lat;lon;timestamp;temperature;humidity
9466;DHT22;4771;48.726;9.006;2023-12-14T00:00:40;6.80;99.90
9466;DHT22;4771;48.726;9.006;2023-12-14T00:03:07;6.80;99.90
9466;DHT22;4771;48.726;9.006;2023-12-14T00:05:34;6.80;99.90
9466;DHT22;4771;48.726;9.006;2023-12-14T00:08:01;6.80;99.90
9466;DHT22;4771;48.726;9.006;2023-12-14T00:10:29;6.90;99.90
9466;DHT22;4771;48.726;9.006;2023-12-14T00:12:56;6.80;99.90
9466;DHT22;4771;48.726;9.006;2023-12-14T00:15:23;6.80;99.90
9466;DHT22;4771;48.726;9.006;2023-12-14T00:17:50;6.80;99.90
9466;DHT22;4771;48.726;9.006;2023-12-14T00:20:16;6.90;99.90
9466;DHT22;4771;48.726;9.006;2023-12-14T00:22:43;6.90;99.90
9466;DHT22;4771;48.726;9.006;2023-12-14T00:25:10;6.90;99.90
9466;DHT22;4771;48.726;9.006;2023-12-14T00:27:38;6.90;99.90
9466;DHT22;4771;48.726;9.006;2023-12-14T00:30:06;6.90;99.90
9466;DHT22;4771;48.726;9.006;2023-12-14T00:32:33;6.90;99.90
9466;DHT22;4771;48.726;9.006;2023-12-14T00:35:00;6.90;99.90
9466;DHT22;4771;48.726;9.006;2023-12-14T00:37:27;7.00;99.90
9466;DHT22;4771;48.726;9.006;2023-12-14T00:39:54;7.00;99.90
9466;DHT22;4771;48.726;9.006;2023-12-14T00:42:21;7.00;99.90
9466;DHT22;4771;48.726;9.006;2023-12-14T00:44:49;7.00;99.90
9466;DHT22;4771;48.726;9.006;2023-12-14T00:47:16;7.00;99.90
9466;DHT22;4771;48.726;9.006;2023-12-14T00:49:43;7.00;99.90
9466;DHT22;4771;48.726;9.006;2023-12-14T00:52:10;7.00;99.90
9466;DHT22;4771;48.726;9.006;2023-12-14T00:54:37;7.00;99.90
9466;DHT22;4771;48.726;9.006;2023-12-14T00:57:04;7.00;99.90
9466;DHT22;4771;48.726;9.006;2023-12-14T00:59:31;7.00;99.90
9466;DHT22;4771;48.726;9.006;2023-12-14T01:01:58;7.00;99.90
9466;DHT22;4771;48.726;9.006;2023-12-14T01:04:25;7.00;99.90
9466;DHT22;4771;48.726;9.006;2023-12-14T01:06:52;7.00;99.90
9466;DHT22;4771;48.726;9.006;2023-12-14T01:09:18;7.00;99.90
9466;DHT22;4771;48.726;9.006;2023-12-14T01:11:45;6.90;99.90
9466;DHT22;4771;48.726;9.006;2023-12-14T01:14:12;7.00;99.90
9466;DHT22;4771;48.726;9.006;2023-12-14T01:16:39;6.90;99.90
9466;DHT22;4771;48.726;9.006;2023-12-14T01:19:07;6.90;99.90
9466;DHT22;4771;48.726;9.006;2023-12-14T01:21:34;6.80;99.90
9466;DHT22;4771;48.726;9.006;2023-12-14T01:24:01;6.80;99.90
9466;DHT22;4771;48.726;9.006;2023-12-14T01:26:28;6.80;99.90
9466;DHT22;4771;48.726;9.006;2023-12-14T01:28:55;6.80;99.90
9466;DHT22;4771;48.726;9.006;2023-12-14T01:31:22;6.80;99.90
9466;DHT22;4771;48.726;9.006;2023-12-14T01:33:49;6.80;99.90
9466;DHT22;4771;48.726;9.006;2023-12-14T01:36:21;6.80;99.90
9466;DHT22;4771;48.726;9.006;2023-12-14T01:38:49;6.80;99.90
9466;DHT22;4771;48.726;9.006;2023-12-14T01:41:16;6.70;99.90
9466;DHT22;4771;48.726;9.006;2023-12-14T01:43:43;6.80;99.90
9466;DHT22;4771;48.726;9.006;2023-12-14T01:46:10;6.80;99.90
9466;DHT22;4771;48.726;9.006;2023-12-14T01:48:38;6.70;99.90
9466;DHT22;4771;48.726;9.006;2023-12-14T01:51:05;6.80;99.90
9466;DHT22;4771;48.726;9.006;2023-12-14T01:53:33;6.80;99.90
9466;DHT22;4771;48.726;9.006;2023-12-14T01:56:00;6.80;99.90
9466;DHT22;4771;48.726;9.006;2023-12-14T01:58:27;7.00;99.90
9466;DHT22;4771;48.726;9.006;2023-12-14T02:01:00;6.90;99.90
9466;DHT22;4771;48.726;9.006;2023-12-14T02:03:30;6.90;99.90
9466;DHT22;4771;48.726;9.006;2023-12-14T02:05:57;7.00;99.90
9466;DHT22;4771;48.726;9.006;2023-12-14T02:08:24;7.00;99.90
9466;DHT22;4771;48.726;9.006;2023-12-14T02:10:52;7.00;99.90
9466;DHT22;4771;48.726;9.006;2023-12-14T02:13:19;7.00;99.90
9466;DHT22;4771;48.726;9.006;2023-12-14T02:15:46;7.00;99.90
9466;DHT22;4771;48.726;9.006;2023-12-14T02:18:13;7.00;99.90
9466;DHT22;4771;48.726;9.006;2023-12-14T02:20:40;7.00;99.90
9466;DHT22;4771;48.726;9.006;2023-12-14T02:23:08;7.00;99.90
9466;DHT22;4771;48.726;9.006;2023-12-14T02:25:35;7.00;99.90
9466;DHT22;4771;48.726;9.006;2023-12-14T02:28:02;7.00;99.90
9466;DHT22;4771;48.726;9.006;2023-12-14T02:30:29;7.00;99.90
9466;DHT22;4771;48.726;9.006;2023-12-14T02:32:56;7.00;99.90
9466;DHT22;4771;48.726;9.006;2023-12-14T02:35:22;7.00;99.90
9466;DHT22;4771;48.726;9.006;2023-12-14T02:37:49;6.90;99.90
9466;DHT22;4771;48.726;9.006;2023-12-14T02:40:18;7.10;99.90
9466;DHT22;4771;48.726;9.006;2023-12-14T02:42:44;7.10;99.90
9466;DHT22;4771;48.726;9.006;2023-12-14T02:45:11;7.10;99.90
9466;DHT22;4771;48.726;9.006;2023-12-14T02:47:38;7.10;99.90
9466;DHT22;4771;48.726;9.006;2023-12-14T02:50:06;7.10;99.90
9466;DHT22;4771;48.726;9.006;2023-12-14T02:52:33;7.10;99.90
9466;DHT22;4771;48.726;9.006;2023-12-14T02:54:59;7.10;99.90
9466;DHT22;4771;48.726;9.006;2023-12-14T02:57:28;7.20;99.90
9466;DHT22;4771;48.726;9.006;2023-12-14T02:59:55;7.20;99.90
9466;DHT22;4771;48.726;9.006;2023-12-14T03:02:22;7.10;99.90
9466;DHT22;4771;48.726;9.006;2023-12-14T03:04:49;7.20;99.90
9466;DHT22;4771;48.726;9.006;2023-12-14T03:07:16;7.10;99.90
9466;DHT22;4771;48.726;9.006;2023-12-14T03:09:42;7.20;99.90
9466;DHT22;4771;48.726;9.006;2023-12-14T03:12:10;7.20;99.90
9466;DHT22;4771;48.726;9.006;2023-12-14T03:14:38;7.20;99.90
9466;DHT22;4771;48.726;9.006;2023-12-14T03:17:06;7.30;99.90
9466;DHT22;4771;48.726;9.006;2023-12-14T03:19:38;7.30;99.90
9466;DHT22;4771;48.726;9.006;2023-12-14T03:22:05;7.30;99.90
9466;DHT22;4771;48.726;9.006;2023-12-14T03:24:32;7.30;99.90
9466;DHT22;4771;48.726;9.006;2023-12-14T03:26:58;7.30;99.90
9466;DHT22;4771;48.726;9.006;2023-12-14T03:29:26;7.30;99.90
9466;DHT22;4771;48.726;9.006;2023-12-14T03:31:55;7.20;99.90
9466;DHT22;4771;48.726;9.006;2023-12-14T03:34:21;7.20;99.90
9466;DHT22;4771;48.726;9.006;2023-12-14T03:36:48;7.20;99.90
9466;DHT22;4771;48.726;9.006;2023-12-14T03:39:15;7.20;99.90
9466;DHT22;4771;48.726;9.006;2023-12-14T03:41:43;7.10;99.90
9466;DHT22;4771;48.726;9.006;2023-12-14T03:44:09;7.10;99.90
9466;DHT22;4771;48.726;9.006;2023-12-14T03:46:36;7.20;99.90
9466;DHT22;4771;48.726;9.006;2023-12-14T03:49:04;7.10;99.90
9466;DHT22;4771;48.726;9.006;2023-12-14T03:51:31;7.10;99.90
9466;DHT22;4771;48.726;9.006;2023-12-14T03:53:58;7.10;99.90
9466;DHT22;4771;48.726;9.006;2023-12-14T03:56:25;7.10;99.90
9466;DHT22;4771;48.726;9.006;2023-12-14T03:58:52;7.10;99.90
9466;DHT22;4771;48.726;9.006;2023-12-14T04:01:19;7.10;99.90
9466;DHT22;4771;48.726;9.006;2023-12-14T04:03:47;7.10;99.90
9466;DHT22;4771;48.726;9.006;2023-12-14T04:06:15;7.10;99.90
9466;DHT22;4771;48.726;9.006;2023-12-14T04:08:42;7.20;99.90
9466;DHT22;4771;48.726;9.006;2023-12-14T04:11:09;7.20;99.90
9466;DHT22;4771;48.726;9.006;2023-12-14T04:13:37;7.20;99.90
9466;DHT22;4771;48.726;9.006;2023-12-14T04:16:04;7.20;99.90
9466;DHT22;4771;48.726;9.006;2023-12-14T04:18:31;7.20;99.90
9466;DHT22;4771;48.726;9.006;2023-12-14T04:20:59;7.20;99.90
9466;DHT22;4771;48.726;9.006;2023-12-14T04:23:27;7.20;99.90
9466;DHT22;4771;48.726;9.006;2023-12-14T04:25:54;7.10;99.90
9466;DHT22;4771;48.726;9.006;2023-12-14T04:28:21;7.10;99.90
9466;DHT22;4771;48.726;9.006;2023-12-14T04:30:48;7.10;99.90
9466;DHT22;4771;48.726;9.006;2023-12-14T04:33:14;7.20;99.90
9466;DHT22;4771;48.726;9.006;2023-12-14T04:35:41;7.20;99.90
9466;DHT22;4771;48.726;9.006;2023-12-14T04:38:08;7.20;99.90
9466;DHT22;4771;48.726;9.006;2023-12-14T04:40:36;7.20;99.90
9466;DHT22;4771;48.726;9.006;2023-12-14T04:43:03;7.20;99.90
9466;DHT22;4771;48.726;9.006;2023-12-14T04:45:30;7.20;99.90
9466;DHT22;4771;48.726;9.006;2023-12-14T04:47:57;7.30;99.90
9466;DHT22;4771;48.726;9.006;2023-12-14T04:50:23;7.30;99.90
9466;DHT22;4771;48.726;9.006;2023-12-14T04:52:50;7.30;99.90
9466;DHT22;4771;48.726;9.006;2023-12-14T04:55:17;7.30;99.90
9466;DHT22;4771;48.726;9.006;2023-12-14T04:57:45;7.30;99.90
9466;DHT22;4771;48.726;9.006;2023-12-14T05:00:15;7.40;99.90
9466;DHT22;4771;48.726;9.006;2023-12-14T05:02:46;7.40;99.90
9466;DHT22;4771;48.726;9.006;2023-12-14T05:05:13;7.40;99.90
9466;DHT22;4771;48.726;9.006;2023-12-14T05:07:40;7.40;99.90
9466;DHT22;4771;48.726;9.006;2023-12-14T05:10:08;7.30;99.90
9466;DHT22;4771;48.726;9.006;2023-12-14T05:12:36;7.30;99.90
9466;DHT22;4771;48.726;9.006;2023-12-14T05:15:05;7.30;99.90
9466;DHT22;4771;48.726;9.006;2023-12-14T05:17:32;7.30;99.90
9466;DHT22;4771;48.726;9.006;2023-12-14T05:20:00;7.30;99.90
9466;DHT22;4771;48.726;9.006;2023-12-14T05:22:27;7.30;99.90
9466;DHT22;4771;48.726;9.006;2023-12-14T05:24:54;7.30;99.90
9466;DHT22;4771;48.726;9.006;2023-12-14T05:27:21;7.40;99.90
9466;DHT22;4771;48.726;9.006;2023-12-14T05:29:48;7.30;99.90
9466;DHT22;4771;48.726;9.006;2023-12-14T05:32:16;7.30;99.90
9466;DHT22;4771;48.726;9.006;2023-12-14T05:34:43;7.40;99.90
9466;DHT22;4771;48.726;9.006;2023-12-14T05:37:10;7.30;99.90
9466;DHT22;4771;48.726;9.006;2023-12-14T05:39:36;7.30;99.90
9466;DHT22;4771;48.726;9.006;2023-12-14T05:42:04;7.40;99.90
9466;DHT22;4771;48.726;9.006;2023-12-14T05:44:30;7.40;99.90
9466;DHT22;4771;48.726;9.006;2023-12-14T05:46:57;7.40;99.90
9466;DHT22;4771;48.726;9.006;2023-12-14T05:49:25;7.40;99.90
9466;DHT22;4771;48.726;9.006;2023-12-14T05:51:52;7.40;99.90
9466;DHT22;4771;48.726;9.006;2023-12-14T05:54:19;7.40;99.90
9466;DHT22;4771;48.726;9.006;2023-12-14T05:56:46;7.40;99.90
9466;DHT22;4771;48.726;9.006;2023-12-14T05:59:13;7.40;99.90
9466;DHT22;4771;48.726;9.006;2023-12-14T06:01:39;7.40;99.90
9466;DHT22;4771;48.726;9.006;2023-12-14T06:04:08;7.50;99.90
9466;DHT22;4771;48.726;9.006;2023-12-14T06:06:38;7.40;99.90
9466;DHT22;4771;48.726;9.006;2023-12-14T06:09:04;7.40;99.90
9466;DHT22;4771;48.726;9.006;2023-12-14T06:11:32;7.40;99.90
9466;DHT22;4771;48.726;9.006;2023-12-14T06:13:59;7.40;99.90
9466;DHT22;4771;48.726;9.006;2023-12-14T06:16:26;7.40;99.90
9466;DHT22;4771;48.726;9.006;2023-12-14T06:18:53;7.40;99.90
9466;DHT22;4771;48.726;9.006;2023-12-14T06:21:20;7.40;99.90
9466;DHT22;4771;48.726;9.006;2023-12-14T06:23:48;7.50;99.90
9466;DHT22;4771;48.726;9.006;2023-12-14T06:26:15;7.50;99.90
9466;DHT22;4771;48.726;9.006;2023-12-14T06:28:41;7.20;99.90
9466;DHT22;4771;48.726;9.006;2023-12-14T06:31:12;7.40;99.90
9466;DHT22;4771;48.726;9.006;2023-12-14T06:33:39;7.40;99.90
9466;DHT22;4771;48.726;9.006;2023-12-14T06:36:08;7.40;99.90
9466;DHT22;4771;48.726;9.006;2023-12-14T06:38:36;7.40;99.90
9466;DHT22;4771;48.726;9.006;2023-12-14T06:41:05;7.30;99.90
9466;DHT22;4771;48.726;9.006;2023-12-14T06:43:32;7.40;99.90
9466;DHT22;4771;48.726;9.006;2023-12-14T06:45:59;7.30;99.90
9466;DHT22;4771;48.726;9.006;2023-12-14T06:48:26;7.30;99.90
9466;DHT22;4771;48.726;9.006;2023-12-14T06:50:52;7.30;99.90
9466;DHT22;4771;48.726;9.006;2023-12-14T06:53:20;7.30;99.90
9466;DHT22;4771;48.726;9.006;2023-12-14T06:55:47;7.30;99.90
9466;DHT22;4771;48.726;9.006;2023-12-14T06:58:15;7.40;99.90
9466;DHT22;4771;48.726;9.006;2023-12-14T07:00:42;7.40;99.90
9466;DHT22;4771;48.726;9.006;2023-12-14T07:03:09;7.40;99.90
9466;DHT22;4771;48.726;9.006;2023-12-14T07:05:36;7.40;99.90
9466;DHT22;4771;48.726;9.006;2023-12-14T07:08:03;7.40;99.90
9466;DHT22;4771;48.726;9.006;2023-12-14T07:10:30;7.40;99.90
9466;DHT22;4771;48.726;9.006;2023-12-14T07:12:57;7.40;99.90
9466;DHT22;4771;48.726;9.006;2023-12-14T07:15:25;7.50;99.90
9466;DHT22;4771;48.726;9.006;2023-12-14T07:17:52;7.40;99.90
9466;DHT22;4771;48.726;9.006;2023-12-14T07:20:19;7.40;99.90
9466;DHT22;4771;48.726;9.006;2023-12-14T07:22:47;7.40;99.90
9466;DHT22;4771;48.726;9.006;2023-12-14T07:25:14;7.50;99.90
9466;DHT22;4771;48.726;9.006;2023-12-14T07:27:41;7.40;99.90
9466;DHT22;4771;48.726;9.006;2023-12-14T07:30:09;7.40;99.90
9466;DHT22;4771;48.726;9.006;2023-12-14T07:32:37;7.40;99.90
9466;DHT22;4771;48.726;9.006;2023-12-14T07:35:05;7.50;99.90
9466;DHT22;4771;48.726;9.006;2023-12-14T07:37:32;7.50;99.90
9466;DHT22;4771;48.726;9.006;2023-12-14T07:39:59;7.50;99.90
9466;DHT22;4771;48.726;9.006;2023-12-14T07:42:26;7.50;99.90
9466;DHT22;4771;48.726;9.006;2023-12-14T07:44:53;7.50;99.90
9466;DHT22;4771;48.726;9.006;2023-12-14T07:47:20;7.50;99.90
9466;DHT22;4771;48.726;9.006;2023-12-14T07:49:48;7.50;99.90
9466;DHT22;4771;48.726;9.006;2023-12-14T07:52:15;7.50;99.90
9466;DHT22;4771;48.726;9.006;2023-12-14T07:54:42;7.60;99.90
9466;DHT22;4771;48.726;9.006;2023-12-14T07:57:09;7.60;99.90
9466;DHT22;4771;48.726;9.006;2023-12-14T07:59:36;7.60;99.90
9466;DHT22;4771;48.726;9.006;2023-12-14T08:02:03;7.60;99.90
9466;DHT22;4771;48.726;9.006;2023-12-14T08:04:29;7.60;99.90
9466;DHT22;4771;48.726;9.006;2023-12-14T08:06:58;7.60;99.90
9466;DHT22;4771;48.726;9.006;2023-12-14T08:09:25;7.60;99.90
9466;DHT22;4771;48.726;9.006;2023-12-14T08:11:52;7.60;99.90
9466;DHT22;4771;48.726;9.006;2023-12-14T08:14:18;7.60;99.90
9466;DHT22;4771;48.726;9.006;2023-12-14T08:16:45;7.50;99.90
9466;DHT22;4771;48.726;9.006;2023-12-14T08:19:12;7.80;99.90
9466;DHT22;4771;48.726;9.006;2023-12-14T08:21:39;7.60;99.90
9466;DHT22;4771;48.726;9.006;2023-12-14T08:24:07;7.70;99.90
9466;DHT22;4771;48.726;9.006;2023-12-14T08:26:34;7.70;99.90
9466;DHT22;4771;48.726;9.006;2023-12-14T08:29:01;7.70;99.90
9466;DHT22;4771;48.726;9.006;2023-12-14T08:31:28;7.70;99.90
9466;DHT22;4771;48.726;9.006;2023-12-14T08:33:54;7.70;99.90
9466;DHT22;4771;48.726;9.006;2023-12-14T08:36:21;7.70;99.90
9466;DHT22;4771;48.726;9.006;2023-12-14T08:38:48;7.70;99.90
9466;DHT22;4771;48.726;9.006;2023-12-14T08:41:17;7.70;99.90
9466;DHT22;4771;48.726;9.006;2023-12-14T08:43:44;7.70;99.90
9466;DHT22;4771;48.726;9.006;2023-12-14T08:46:11;7.80;99.90
9466;DHT22;4771;48.726;9.006;2023-12-14T08:48:38;7.80;99.90
9466;DHT22;4771;48.726;9.006;2023-12-14T08:51:05;7.90;99.90
9466;DHT22;4771;48.726;9.006;2023-12-14T08:53:32;7.80;99.90
9466;DHT22;4771;48.726;9.006;2023-12-14T08:55:59;7.70;99.90
9466;DHT22;4771;48.726;9.006;2023-12-14T08:58:27;7.70;99.90
9466;DHT22;4771;48.726;9.006;2023-12-14T09:00:55;7.70;99.90
9466;DHT22;4771;48.726;9.006;2023-12-14T09:03:22;7.70;99.90
9466;DHT22;4771;48.726;9.006;2023-12-14T09:05:49;7.70;99.90
9466;DHT22;4771;48.726;9.006;2023-12-14T09:08:15;7.70;99.90
9466;DHT22;4771;48.726;9.006;2023-12-14T09:10:42;7.80;99.90
9466;DHT22;4771;48.726;9.006;2023-12-14T09:13:10;7.70;99.90
9466;DHT22;4771;48.726;9.006;2023-12-14T09:15:38;7.80;99.90
9466;DHT22;4771;48.726;9.006;2023-12-14T09:18:05;7.70;99.90
9466;DHT22;4771;48.726;9.006;2023-12-14T09:20:32;7.80;99.90
9466;DHT22;4771;48.726;9.006;2023-12-14T09:23:00;7.80;99.90
9466;DHT22;4771;48.726;9.006;2023-12-14T09:25:27;7.90;99.90
9466;DHT22;4771;48.726;9.006;2023-12-14T09:27:54;7.90;99.90
9466;DHT22;4771;48.726;9.006;2023-12-14T09:30:21;8.00;99.90
9466;DHT22;4771;48.726;9.006;2023-12-14T09:32:49;8.00;99.90
9466;DHT22;4771;48.726;9.006;2023-12-14T09:35:16;7.90;99.90
9466;DHT22;4771;48.726;9.006;2023-12-14T09:37:43;8.00;99.90
9466;DHT22;4771;48.726;9.006;2023-12-14T09:40:10;8.00;99.90
9466;DHT22;4771;48.726;9.006;2023-12-14T09:42:38;8.00;99.90
9466;DHT22;4771;48.726;9.006;2023-12-14T09:45:07;8.00;99.90
9466;DHT22;4771;48.726;9.006;2023-12-14T09:47:34;8.00;99.90
9466;DHT22;4771;48.726;9.006;2023-12-14T09:50:02;7.90;99.90
9466;DHT22;4771;48.726;9.006;2023-12-14T09:52:30;7.90;99.90
9466;DHT22;4771;48.726;9.006;2023-12-14T09:54:58;7.70;99.90
9466;DHT22;4771;48.726;9.006;2023-12-14T09:57:25;7.70;99.90
9466;DHT22;4771;48.726;9.006;2023-12-14T09:59:52;7.70;99.90
9466;DHT22;4771;48.726;9.006;2023-12-14T10:02:19;7.60;99.90
9466;DHT22;4771;48.726;9.006;2023-12-14T10:04:47;7.60;99.90
9466;DHT22;4771;48.726;9.006;2023-12-14T10:07:15;7.70;99.90
9466;DHT22;4771;48.726;9.006;2023-12-14T10:09:42;7.70;99.90
9466;DHT22;4771;48.726;9.006;2023-12-14T10:12:10;7.80;99.90
9466;DHT22;4771;48.726;9.006;2023-12-14T10:14:37;7.80;99.90
9466;DHT22;4771;48.726;9.006;2023-12-14T10:17:18;7.80;99.90
9466;DHT22;4771;48.726;9.006;2023-12-14T10:19:45;7.80;99.90
9466;DHT22;4771;48.726;9.006;2023-12-14T10:22:15;7.80;99.90
9466;DHT22;4771;48.726;9.006;2023-12-14T10:24:43;7.90;99.90
9466;DHT22;4771;48.726;9.006;2023-12-14T10:27:11;8.00;99.90
9466;DHT22;4771;48.726;9.006;2023-12-14T10:29:38;7.90;99.90
9466;DHT22;4771;48.726;9.006;2023-12-14T10:32:06;7.90;99.90
9466;DHT22;4771;48.726;9.006;2023-12-14T10:34:35;8.00;99.90
9466;DHT22;4771;48.726;9.006;2023-12-14T10:37:04;8.00;99.90
9466;DHT22;4771;48.726;9.006;2023-12-14T10:39:33;8.20;99.90
9466;DHT22;4771;48.726;9.006;2023-12-14T10:42:02;8.00;99.90
9466;DHT22;4771;48.726;9.006;2023-12-14T10:44:30;8.00;99.90
9466;DHT22;4771;48.726;9.006;2023-12-14T10:47:00;7.90;99.90
9466;DHT22;4771;48.726;9.006;2023-12-14T10:49:29;7.90;99.90
9466;DHT22;4771;48.726;9.006;2023-12-14T10:51:57;7.90;99.90
9466;DHT22;4771;48.726;9.006;2023-12-14T10:54:26;8.00;99.90
9466;DHT22;4771;48.726;9.006;2023-12-14T10:56:56;7.90;99.90
9466;DHT22;4771;48.726;9.006;2023-12-14T10:59:23;7.90;99.90
9466;DHT22;4771;48.726;9.006;2023-12-14T11:01:51;8.00;99.90
9466;DHT22;4771;48.726;9.006;2023-12-14T11:04:20;8.10;99.90
9466;DHT22;4771;48.726;9.006;2023-12-14T11:06:47;8.20;99.90
9466;DHT22;4771;48.726;9.006;2023-12-14T11:09:17;8.10;99.90
9466;DHT22;4771;48.726;9.006;2023-12-14T11:11:56;8.10;99.90
9466;DHT22;4771;48.726;9.006;2023-12-14T11:14:26;8.10;99.90
9466;DHT22;4771;48.726;9.006;2023-12-14T11:16:54;8.20;99.90
9466;DHT22;4771;48.726;9.006;2023-12-14T11:19:26;8.20;99.90
9466;DHT22;4771;48.726;9.006;2023-12-14T11:22:22;8.40;99.90
9466;DHT22;4771;48.726;9.006;2023-12-14T11:24:53;8.50;99.90
9466;DHT22;4771;48.726;9.006;2023-12-14T11:27:26;8.50;99.90
9466;DHT22;4771;48.726;9.006;2023-12-14T11:29:59;8.50;99.90
9466;DHT22;4771;48.726;9.006;2023-12-14T11:32:27;8.60;99.90
9466;DHT22;4771;48.726;9.006;2023-12-14T11:34:55;8.60;99.90
9466;DHT22;4771;48.726;9.006;2023-12-14T11:37:22;8.60;99.90
9466;DHT22;4771;48.726;9.006;2023-12-14T11:39:50;8.60;99.90
9466;DHT22;4771;48.726;9.006;2023-12-14T11:42:19;8.40;99.90
9466;DHT22;4771;48.726;9.006;2023-12-14T11:44:47;8.40;99.90
9466;DHT22;4771;48.726;9.006;2023-12-14T11:47:14;8.30;99.90
9466;DHT22;4771;48.726;9.006;2023-12-14T11:49:41;8.40;99.90
9466;DHT22;4771;48.726;9.006;2023-12-14T11:52:08;8.40;99.90
9466;DHT22;4771;48.726;9.006;2023-12-14T11:54:35;8.40;99.90
9466;DHT22;4771;48.726;9.006;2023-12-14T11:57:03;8.30;99.90
9466;DHT22;4771;48.726;9.006;2023-12-14T11:59:35;8.30;99.90
9466;DHT22;4771;48.726;9.006;2023-12-14T12:02:04;8.40;99.90
9466;DHT22;4771;48.726;9.006;2023-12-14T12:04:31;8.40;99.90
9466;DHT22;4771;48.726;9.006;2023-12-14T12:07:01;8.40;99.90
9466;DHT22;4771;48.726;9.006;2023-12-14T12:09:34;8.50;99.90
9466;DHT22;4771;48.726;9.006;2023-12-14T12:14:31;8.50;99.90
9466;DHT22;4771;48.726;9.006;2023-12-14T12:16:58;8.50;99.90
9466;DHT22;4771;48.726;9.006;2023-12-14T12:19:26;8.60;99.90
9466;DHT22;4771;48.726;9.006;2023-12-14T12:21:53;8.60;99.90
9466;DHT22;4771;48.726;9.006;2023-12-14T12:24:20;8.50;99.90
9466;DHT22;4771;48.726;9.006;2023-12-14T12:26:47;8.60;99.90
9466;DHT22;4771;48.726;9.006;2023-12-14T12:29:14;8.60;99.90
9466;DHT22;4771;48.726;9.006;2023-12-14T12:31:40;8.70;99.90
9466;DHT22;4771;48.726;9.006;2023-12-14T12:34:08;8.70;99.90
9466;DHT22;4771;48.726;9.006;2023-12-14T12:36:36;8.70;99.90
9466;DHT22;4771;48.726;9.006;2023-12-14T12:39:03;8.70;99.90
9466;DHT22;4771;48.726;9.006;2023-12-14T12:41:31;8.70;99.90
9466;DHT22;4771;48.726;9.006;2023-12-14T12:43:58;8.70;99.90
9466;DHT22;4771;48.726;9.006;2023-12-14T12:46:31;8.80;99.90
9466;DHT22;4771;48.726;9.006;2023-12-14T12:48:58;8.70;99.90
9466;DHT22;4771;48.726;9.006;2023-12-14T12:51:25;8.70;99.90
9466;DHT22;4771;48.726;9.006;2023-12-14T12:53:54;8.70;99.90
9466;DHT22;4771;48.726;9.006;2023-12-14T12:56:21;8.70;99.90
9466;DHT22;4771;48.726;9.006;2023-12-14T12:58:48;8.70;99.90
9466;DHT22;4771;48.726;9.006;2023-12-14T13:01:15;8.70;99.90
9466;DHT22;4771;48.726;9.006;2023-12-14T13:03:42;8.70;99.90
9466;DHT22;4771;48.726;9.006;2023-12-14T13:06:09;8.70;99.90
9466;DHT22;4771;48.726;9.006;2023-12-14T13:08:36;8.80;99.90
9466;DHT22;4771;48.726;9.006;2023-12-14T13:11:04;8.70;99.90
9466;DHT22;4771;48.726;9.006;2023-12-14T13:13:31;8.70;99.90
9466;DHT22;4771;48.726;9.006;2023-12-14T13:15:58;8.60;99.90
9466;DHT22;4771;48.726;9.006;2023-12-14T13:18:25;8.60;99.90
9466;DHT22;4771;48.726;9.006;2023-12-14T13:20:52;8.60;99.90
9466;DHT22;4771;48.726;9.006;2023-12-14T13:23:18;8.60;99.90
9466;DHT22;4771;48.726;9.006;2023-12-14T13:25:45;8.60;99.90
9466;DHT22;4771;48.726;9.006;2023-12-14T13:28:14;8.60;99.90
9466;DHT22;4771;48.726;9.006;2023-12-14T13:30:41;8.60;99.90
9466;DHT22;4771;48.726;9.006;2023-12-14T13:33:08;8.60;99.90
9466;DHT22;4771;48.726;9.006;2023-12-14T13:35:37;8.60;99.90
9466;DHT22;4771;48.726;9.006;2023-12-14T13:38:04;8.60;99.90
9466;DHT22;4771;48.726;9.006;2023-12-14T13:40:31;8.50;99.90
9466;DHT22;4771;48.726;9.006;2023-12-14T13:42:58;8.40;99.90
9466;DHT22;4771;48.726;9.006;2023-12-14T13:45:30;8.40;99.90
9466;DHT22;4771;48.726;9.006;2023-12-14T13:47:57;8.40;99.90
9466;DHT22;4771;48.726;9.006;2023-12-14T13:50:24;8.40;99.90
9466;DHT22;4771;48.726;9.006;2023-12-14T13:52:53;8.40;99.90
9466;DHT22;4771;48.726;9.006;2023-12-14T13:55:21;8.30;99.90
9466;DHT22;4771;48.726;9.006;2023-12-14T13:57:48;8.20;99.90
9466;DHT22;4771;48.726;9.006;2023-12-14T14:00:15;8.20;99.90
9466;DHT22;4771;48.726;9.006;2023-12-14T14:02:45;8.20;99.90
9466;DHT22;4771;48.726;9.006;2023-12-14T14:05:12;8.20;99.90
9466;DHT22;4771;48.726;9.006;2023-12-14T14:07:39;8.20;99.90
9466;DHT22;4771;48.726;9.006;2023-12-14T14:10:07;8.20;99.90
9466;DHT22;4771;48.726;9.006;2023-12-14T14:12:34;8.30;99.90
9466;DHT22;4771;48.726;9.006;2023-12-14T14:15:01;8.30;99.90
9466;DHT22;4771;48.726;9.006;2023-12-14T14:17:28;8.20;99.90
9466;DHT22;4771;48.726;9.006;2023-12-14T14:19:56;8.30;99.90
9466;DHT22;4771;48.726;9.006;2023-12-14T14:22:22;8.30;99.90
9466;DHT22;4771;48.726;9.006;2023-12-14T14:24:49;8.30;99.90
9466;DHT22;4771;48.726;9.006;2023-12-14T14:27:16;8.20;99.90
9466;DHT22;4771;48.726;9.006;2023-12-14T14:29:43;8.20;99.90
9466;DHT22;4771;48.726;9.006;2023-12-14T14:32:10;8.30;99.90
9466;DHT22;4771;48.726;9.006;2023-12-14T14:34:37;8.20;99.90
9466;DHT22;4771;48.726;9.006;2023-12-14T14:37:05;8.20;99.90
9466;DHT22;4771;48.726;9.006;2023-12-14T14:39:32;8.20;99.90
9466;DHT22;4771;48.726;9.006;2023-12-14T14:41:59;8.10;99.90
9466;DHT22;4771;48.726;9.006;2023-12-14T14:44:26;8.10;99.90
9466;DHT22;4771;48.726;9.006;2023-12-14T14:46:53;8.20;99.90
9466;DHT22;4771;48.726;9.006;2023-12-14T14:49:20;8.20;99.90
9466;DHT22;4771;48.726;9.006;2023-12-14T14:51:47;8.10;99.90
9466;DHT22;4771;48.726;9.006;2023-12-14T14:54:15;8.30;99.90
9466;DHT22;4771;48.726;9.006;2023-12-14T14:56:43;8.10;99.90
9466;DHT22;4771;48.726;9.006;2023-12-14T14:59:10;8.10;99.90
9466;DHT22;4771;48.726;9.006;2023-12-14T15:01:38;8.10;99.90
9466;DHT22;4771;48.726;9.006;2023-12-14T15:04:05;8.20;99.90
9466;DHT22;4771;48.726;9.006;2023-12-14T15:06:32;8.20;99.90
9466;DHT22;4771;48.726;9.006;2023-12-14T15:09:00;8.20;99.90
9466;DHT22;4771;48.726;9.006;2023-12-14T15:11:28;8.20;99.90
9466;DHT22;4771;48.726;9.006;2023-12-14T15:13:55;8.10;99.90
9466;DHT22;4771;48.726;9.006;2023-12-14T15:16:22;8.10;99.90
9466;DHT22;4771;48.726;9.006;2023-12-14T15:18:50;8.10;99.90
9466;DHT22;4771;48.726;9.006;2023-12-14T15:21:17;8.10;99.90
9466;DHT22;4771;48.726;9.006;2023-12-14T15:23:44;8.00;99.90
9466;DHT22;4771;48.726;9.006;2023-12-14T15:26:13;8.00;99.90
9466;DHT22;4771;48.726;9.006;2023-12-14T15:28:42;8.00;99.90
9466;DHT22;4771;48.726;9.006;2023-12-14T15:31:09;8.00;99.90
9466;DHT22;4771;48.726;9.006;2023-12-14T15:33:37;8.00;99.90
9466;DHT22;4771;48.726;9.006;2023-12-14T15:36:04;7.90;99.90
9466;DHT22;4771;48.726;9.006;2023-12-14T15:38:31;7.90;99.90
9466;DHT22;4771;48.726;9.006;2023-12-14T15:40:58;7.90;99.90
9466;DHT22;4771;48.726;9.006;2023-12-14T15:43:25;7.80;99.90
9466;DHT22;4771;48.726;9.006;2023-12-14T15:45:53;7.80;99.90
9466;DHT22;4771;48.726;9.006;2023-12-14T15:48:20;7.80;99.90
9466;DHT22;4771;48.726;9.006;2023-12-14T15:50:47;7.80;99.90
9466;DHT22;4771;48.726;9.006;2023-12-14T15:53:14;7.80;99.90
9466;DHT22;4771;48.726;9.006;2023-12-14T15:55:41;7.80;99.90
9466;DHT22;4771;48.726;9.006;2023-12-14T15:58:10;7.80;99.90
9466;DHT22;4771;48.726;9.006;2023-12-14T16:00:37;7.80;99.90
9466;DHT22;4771;48.726;9.006;2023-12-14T16:03:06;7.80;99.90
9466;DHT22;4771;48.726;9.006;2023-12-14T16:05:33;7.80;99.90
9466;DHT22;4771;48.726;9.006;2023-12-14T16:08:00;7.80;99.90
9466;DHT22;4771;48.726;9.006;2023-12-14T16:10:27;7.80;99.90
9466;DHT22;4771;48.726;9.006;2023-12-14T16:12:54;7.80;99.90
9466;DHT22;4771;48.726;9.006;2023-12-14T16:15:21;7.80;99.90
9466;DHT22;4771;48.726;9.006;2023-12-14T16:17:48;7.80;99.90
9466;DHT22;4771;48.726;9.006;2023-12-14T16:20:16;7.70;99.90